Aviation Digital Data Service (ADDS)

Output produced by METARs form (1922 UTC 17 February 2018)
found at http://aviationweather.gov/adds/metars/
 
KOAJ 171734Z 1718/1818 09007KT P6SM OVC020 
     FM172100 VRB04KT 5SM -DZ VCSH OVC009 
     FM180100 VRB04KT 4SM -DZ BKN008 
     FM180900 33006KT P6SM OVC008 
     FM181200 35006KT P6SM BKN015 
     FM181300 36007KT P6SM SKC AMD LTD TO CLD VIS AND WIND